sensor_id;sensor_type;location;lat;lon;timestamp;pressure;altitude;pressure_sealevel;temperature;humidity
46111;BME280;31849;55.992;37.252;2023-02-13T00:02:11;99300.09;;;-6.44;60.52
46111;BME280;31849;55.992;37.252;2023-02-13T00:07:16;99296.88;;;-6.42;60.95
46111;BME280;31849;55.992;37.252;2023-02-13T00:12:20;99292.69;;;-6.28;60.73
46111;BME280;31849;55.992;37.252;2023-02-13T00:17:23;99280.59;;;-6.19;60.79
46111;BME280;31849;55.992;37.252;2023-02-13T00:22:28;99248.31;;;-6.08;60.20
46111;BME280;31849;55.992;37.252;2023-02-13T00:27:32;99266.72;;;-6.10;60.12
46111;BME280;31849;55.992;37.252;2023-02-13T00:32:35;99259.53;;;-5.89;59.95
46111;BME280;31849;55.992;37.252;2023-02-13T00:37:40;99239.66;;;-5.68;59.51
46111;BME280;31849;55.992;37.252;2023-02-13T00:42:43;99234.94;;;-5.62;59.62
46111;BME280;31849;55.992;37.252;2023-02-13T00:47:47;99228.03;;;-5.50;59.34
46111;BME280;31849;55.992;37.252;2023-02-13T00:52:52;99227.16;;;-5.65;59.73
46111;BME280;31849;55.992;37.252;2023-02-13T00:57:55;99221.75;;;-5.71;60.06
46111;BME280;31849;55.992;37.252;2023-02-13T01:02:59;99215.88;;;-5.70;59.80
46111;BME280;31849;55.992;37.252;2023-02-13T01:08:04;99216.19;;;-5.51;59.60
46111;BME280;31849;55.992;37.252;2023-02-13T01:13:08;99207.78;;;-5.50;59.90
46111;BME280;31849;55.992;37.252;2023-02-13T01:18:12;99206.13;;;-5.49;59.57
46111;BME280;31849;55.992;37.252;2023-02-13T01:23:17;99190.47;;;-5.42;59.32
46111;BME280;31849;55.992;37.252;2023-02-13T01:28:21;99182.84;;;-5.42;59.48
46111;BME280;31849;55.992;37.252;2023-02-13T01:33:26;99177.72;;;-5.43;59.46
46111;BME280;31849;55.992;37.252;2023-02-13T01:38:31;99160.88;;;-5.43;59.32
46111;BME280;31849;55.992;37.252;2023-02-13T01:43:46;99144.88;;;-5.57;59.63
46111;BME280;31849;55.992;37.252;2023-02-13T01:48:52;99140.69;;;-5.56;59.28
46111;BME280;31849;55.992;37.252;2023-02-13T01:54:01;99134.38;;;-5.48;59.24
46111;BME280;31849;55.992;37.252;2023-02-13T01:59:08;99121.97;;;-5.58;59.51
46111;BME280;31849;55.992;37.252;2023-02-13T02:04:16;99120.09;;;-5.62;60.17
46111;BME280;31849;55.992;37.252;2023-02-13T02:09:26;99110.03;;;-5.61;60.15
46111;BME280;31849;55.992;37.252;2023-02-13T02:14:32;99105.03;;;-5.44;59.49
46111;BME280;31849;55.992;37.252;2023-02-13T02:19:39;99107.03;;;-5.39;59.87
46111;BME280;31849;55.992;37.252;2023-02-13T02:25:08;99101.94;;;-5.24;60.19
46111;BME280;31849;55.992;37.252;2023-02-13T02:30:36;99091.06;;;-5.21;60.23
46111;BME280;31849;55.992;37.252;2023-02-13T02:35:48;99080.50;;;-4.98;60.28
46111;BME280;31849;55.992;37.252;2023-02-13T02:41:01;99076.00;;;-4.87;59.98
46111;BME280;31849;55.992;37.252;2023-02-13T02:46:12;99060.53;;;-4.91;59.85
46111;BME280;31849;55.992;37.252;2023-02-13T02:51:23;99047.00;;;-4.92;60.21
46111;BME280;31849;55.992;37.252;2023-02-13T02:56:35;99054.81;;;-5.04;60.20
46111;BME280;31849;55.992;37.252;2023-02-13T03:01:40;99054.34;;;-4.97;59.91
46111;BME280;31849;55.992;37.252;2023-02-13T03:07:06;99028.63;;;-5.04;60.53
46111;BME280;31849;55.992;37.252;2023-02-13T03:12:12;99014.56;;;-4.98;60.37
46111;BME280;31849;55.992;37.252;2023-02-13T03:17:34;98992.81;;;-5.10;61.14
46111;BME280;31849;55.992;37.252;2023-02-13T03:23:04;98976.44;;;-4.83;59.83
46111;BME280;31849;55.992;37.252;2023-02-13T03:28:14;98973.97;;;-4.65;60.05
46111;BME280;31849;55.992;37.252;2023-02-13T03:33:53;98966.53;;;-4.62;60.28
46111;BME280;31849;55.992;37.252;2023-02-13T03:39:07;98965.31;;;-4.52;60.30
46111;BME280;31849;55.992;37.252;2023-02-13T03:44:16;98967.06;;;-4.33;60.26
46111;BME280;31849;55.992;37.252;2023-02-13T03:49:26;98966.09;;;-4.18;59.95
46111;BME280;31849;55.992;37.252;2023-02-13T03:54:54;98952.16;;;-4.09;59.88
46111;BME280;31849;55.992;37.252;2023-02-13T04:00:16;98954.97;;;-4.20;59.99
46111;BME280;31849;55.992;37.252;2023-02-13T04:05:21;98933.22;;;-4.15;60.34
46111;BME280;31849;55.992;37.252;2023-02-13T04:10:30;98915.75;;;-4.27;60.40
46111;BME280;31849;55.992;37.252;2023-02-13T04:15:40;98923.06;;;-4.15;60.58
46111;BME280;31849;55.992;37.252;2023-02-13T04:20:44;98914.84;;;-4.28;60.96
46111;BME280;31849;55.992;37.252;2023-02-13T04:25:51;98904.78;;;-4.08;60.67
46111;BME280;31849;55.992;37.252;2023-02-13T04:30:56;98900.94;;;-4.18;60.56
46111;BME280;31849;55.992;37.252;2023-02-13T04:36:00;98901.94;;;-4.14;60.75
46111;BME280;31849;55.992;37.252;2023-02-13T04:41:05;98872.38;;;-4.14;60.84
46111;BME280;31849;55.992;37.252;2023-02-13T04:46:08;98867.13;;;-3.99;60.50
46111;BME280;31849;55.992;37.252;2023-02-13T04:51:12;98871.63;;;-3.93;60.83
46111;BME280;31849;55.992;37.252;2023-02-13T04:56:17;98861.31;;;-4.14;61.70
46111;BME280;31849;55.992;37.252;2023-02-13T05:01:21;98848.06;;;-3.89;60.63
46111;BME280;31849;55.992;37.252;2023-02-13T05:06:25;98849.94;;;-3.85;61.17
46111;BME280;31849;55.992;37.252;2023-02-13T05:11:29;98843.22;;;-3.65;61.22
46111;BME280;31849;55.992;37.252;2023-02-13T05:16:33;98842.44;;;-3.44;60.98
46111;BME280;31849;55.992;37.252;2023-02-13T05:21:36;98838.94;;;-3.46;61.24
46111;BME280;31849;55.992;37.252;2023-02-13T05:26:58;98834.72;;;-3.26;61.16
46111;BME280;31849;55.992;37.252;2023-02-13T05:32:02;98836.19;;;-3.31;61.04
46111;BME280;31849;55.992;37.252;2023-02-13T05:37:06;98842.66;;;-3.19;60.75
46111;BME280;31849;55.992;37.252;2023-02-13T05:42:10;98844.50;;;-2.95;60.17
46111;BME280;31849;55.992;37.252;2023-02-13T05:47:14;98844.44;;;-2.96;60.67
46111;BME280;31849;55.992;37.252;2023-02-13T05:52:17;98839.47;;;-2.72;60.26
46111;BME280;31849;55.992;37.252;2023-02-13T05:57:22;98831.25;;;-2.44;60.01
46111;BME280;31849;55.992;37.252;2023-02-13T06:02:26;98837.84;;;-2.49;60.44
46111;BME280;31849;55.992;37.252;2023-02-13T06:07:29;98813.38;;;-2.45;60.28
46111;BME280;31849;55.992;37.252;2023-02-13T06:12:34;98826.88;;;-2.03;59.62
46111;BME280;31849;55.992;37.252;2023-02-13T06:17:37;98825.97;;;-1.81;59.25
46111;BME280;31849;55.992;37.252;2023-02-13T06:22:40;98813.56;;;-1.71;59.38
46111;BME280;31849;55.992;37.252;2023-02-13T06:27:45;98810.22;;;-1.46;58.99
46111;BME280;31849;55.992;37.252;2023-02-13T06:32:49;98789.25;;;-1.12;58.50
46111;BME280;31849;55.992;37.252;2023-02-13T06:37:52;98789.97;;;-0.90;58.57
46111;BME280;31849;55.992;37.252;2023-02-13T06:42:57;98790.47;;;-0.47;58.28
46111;BME280;31849;55.992;37.252;2023-02-13T06:48:01;98772.06;;;-0.64;58.56
46111;BME280;31849;55.992;37.252;2023-02-13T06:53:04;98770.34;;;-0.37;57.82
46111;BME280;31849;55.992;37.252;2023-02-13T06:58:09;98760.28;;;-0.32;57.35
46111;BME280;31849;55.992;37.252;2023-02-13T07:03:12;98756.53;;;-0.14;56.63
46111;BME280;31849;55.992;37.252;2023-02-13T07:08:16;98762.88;;;-0.30;57.49
46111;BME280;31849;55.992;37.252;2023-02-13T07:13:21;98753.47;;;-0.03;57.09
46111;BME280;31849;55.992;37.252;2023-02-13T07:18:24;98753.91;;;0.14;56.10
46111;BME280;31849;55.992;37.252;2023-02-13T07:23:28;98733.19;;;0.35;56.73
46111;BME280;31849;55.992;37.252;2023-02-13T07:28:33;98710.56;;;0.51;56.53
46111;BME280;31849;55.992;37.252;2023-02-13T07:33:36;98732.69;;;0.82;55.79
46111;BME280;31849;55.992;37.252;2023-02-13T07:38:40;98715.56;;;0.14;56.58
46111;BME280;31849;55.992;37.252;2023-02-13T07:43:45;98722.00;;;0.32;56.97
46111;BME280;31849;55.992;37.252;2023-02-13T07:48:50;98725.56;;;0.70;55.83
46111;BME280;31849;55.992;37.252;2023-02-13T07:53:54;98713.34;;;0.94;55.75
46111;BME280;31849;55.992;37.252;2023-02-13T07:58:59;98709.09;;;1.32;55.56
46111;BME280;31849;55.992;37.252;2023-02-13T08:04:03;98706.56;;;1.34;55.01
46111;BME280;31849;55.992;37.252;2023-02-13T08:09:07;98710.69;;;1.27;55.33
46111;BME280;31849;55.992;37.252;2023-02-13T08:14:38;98698.50;;;1.17;55.88
46111;BME280;31849;55.992;37.252;2023-02-13T08:19:41;98681.69;;;0.92;55.91
46111;BME280;31849;55.992;37.252;2023-02-13T08:24:45;98698.06;;;0.97;56.07
46111;BME280;31849;55.992;37.252;2023-02-13T08:29:49;98686.69;;;0.85;56.31
46111;BME280;31849;55.992;37.252;2023-02-13T08:34:53;98673.81;;;0.82;56.24
46111;BME280;31849;55.992;37.252;2023-02-13T08:39:56;98680.09;;;0.95;56.76
46111;BME280;31849;55.992;37.252;2023-02-13T08:45:01;98669.31;;;1.09;56.63
46111;BME280;31849;55.992;37.252;2023-02-13T08:50:06;98664.28;;;1.13;56.45
46111;BME280;31849;55.992;37.252;2023-02-13T08:55:10;98658.09;;;1.43;56.27
46111;BME280;31849;55.992;37.252;2023-02-13T09:00:15;98656.75;;;1.61;56.18
46111;BME280;31849;55.992;37.252;2023-02-13T09:05:19;98648.38;;;1.68;55.98
46111;BME280;31849;55.992;37.252;2023-02-13T09:10:23;98648.50;;;1.75;56.10
46111;BME280;31849;55.992;37.252;2023-02-13T09:15:28;98619.81;;;1.95;55.61
46111;BME280;31849;55.992;37.252;2023-02-13T09:20:32;98602.56;;;1.86;56.00
46111;BME280;31849;55.992;37.252;2023-02-13T09:25:37;98603.03;;;2.11;55.78
46111;BME280;31849;55.992;37.252;2023-02-13T09:30:41;98595.63;;;2.29;55.40
46111;BME280;31849;55.992;37.252;2023-02-13T09:35:45;98584.88;;;2.52;55.04
46111;BME280;31849;55.992;37.252;2023-02-13T09:40:51;98587.00;;;2.78;55.15
46111;BME280;31849;55.992;37.252;2023-02-13T09:46:02;98579.41;;;2.87;55.41
46111;BME280;31849;55.992;37.252;2023-02-13T09:51:13;98578.94;;;3.16;54.22
46111;BME280;31849;55.992;37.252;2023-02-13T09:56:21;98583.31;;;3.23;54.28
46111;BME280;31849;55.992;37.252;2023-02-13T10:01:30;98587.59;;;3.23;55.05
46111;BME280;31849;55.992;37.252;2023-02-13T10:06:36;98568.91;;;3.36;54.89
46111;BME280;31849;55.992;37.252;2023-02-13T10:17:41;98563.69;;;4.10;54.48
46111;BME280;31849;55.992;37.252;2023-02-13T10:22:50;98559.44;;;4.13;53.83
46111;BME280;31849;55.992;37.252;2023-02-13T10:27:59;98550.03;;;4.18;53.73
46111;BME280;31849;55.992;37.252;2023-02-13T10:33:10;98527.72;;;4.13;53.93
46111;BME280;31849;55.992;37.252;2023-02-13T10:38:23;98527.47;;;3.85;54.50
46111;BME280;31849;55.992;37.252;2023-02-13T10:43:29;98512.94;;;3.93;54.38
46111;BME280;31849;55.992;37.252;2023-02-13T10:48:59;98503.41;;;3.83;53.64
46111;BME280;31849;55.992;37.252;2023-02-13T10:54:27;98494.22;;;4.10;54.26
46111;BME280;31849;55.992;37.252;2023-02-13T10:59:47;98504.69;;;4.31;53.92
46111;BME280;31849;55.992;37.252;2023-02-13T11:04:57;98512.94;;;3.93;54.88
46111;BME280;31849;55.992;37.252;2023-02-13T11:10:12;98506.13;;;3.97;55.03
46111;BME280;31849;55.992;37.252;2023-02-13T11:15:22;98498.25;;;3.78;55.30
46111;BME280;31849;55.992;37.252;2023-02-13T11:20:34;98480.28;;;3.84;56.27
46111;BME280;31849;55.992;37.252;2023-02-13T11:25:38;98475.09;;;3.77;56.24
46111;BME280;31849;55.992;37.252;2023-02-13T11:30:41;98449.59;;;4.04;55.83
46111;BME280;31849;55.992;37.252;2023-02-13T11:35:46;98453.16;;;4.19;55.71
46111;BME280;31849;55.992;37.252;2023-02-13T11:40:52;98441.41;;;4.70;54.66
46111;BME280;31849;55.992;37.252;2023-02-13T11:46:06;98433.00;;;5.13;54.71
46111;BME280;31849;55.992;37.252;2023-02-13T11:51:12;98432.13;;;5.08;54.19
46111;BME280;31849;55.992;37.252;2023-02-13T11:56:16;98407.28;;;5.49;53.92
46111;BME280;31849;55.992;37.252;2023-02-13T12:01:25;98403.88;;;5.56;52.30
46111;BME280;31849;55.992;37.252;2023-02-13T12:06:32;98406.41;;;5.39;53.08
46111;BME280;31849;55.992;37.252;2023-02-13T12:11:43;98408.13;;;5.18;52.40
46111;BME280;31849;55.992;37.252;2023-02-13T12:16:50;98394.25;;;4.82;54.11
46111;BME280;31849;55.992;37.252;2023-02-13T12:22:15;98401.16;;;4.88;53.90
46111;BME280;31849;55.992;37.252;2023-02-13T12:27:28;98390.81;;;4.75;53.65
46111;BME280;31849;55.992;37.252;2023-02-13T12:32:42;98378.56;;;4.23;54.44
46111;BME280;31849;55.992;37.252;2023-02-13T12:37:56;98366.72;;;4.63;54.25
46111;BME280;31849;55.992;37.252;2023-02-13T12:43:14;98348.66;;;4.55;53.78
46111;BME280;31849;55.992;37.252;2023-02-13T12:48:31;98346.88;;;4.37;54.11
46111;BME280;31849;55.992;37.252;2023-02-13T12:59:30;98343.16;;;3.82;54.67
46111;BME280;31849;55.992;37.252;2023-02-13T13:04:43;98326.72;;;3.63;55.32
46111;BME280;31849;55.992;37.252;2023-02-13T13:10:02;98339.69;;;3.77;54.67
46111;BME280;31849;55.992;37.252;2023-02-13T13:15:21;98331.69;;;3.39;55.64
46111;BME280;31849;55.992;37.252;2023-02-13T13:26:02;98330.03;;;3.44;56.01
46111;BME280;31849;55.992;37.252;2023-02-13T13:31:09;98316.09;;;3.17;57.10
46111;BME280;31849;55.992;37.252;2023-02-13T13:36:20;98307.31;;;2.92;57.69
46111;BME280;31849;55.992;37.252;2023-02-13T13:41:36;98293.47;;;2.79;58.77
46111;BME280;31849;55.992;37.252;2023-02-13T13:46:51;98305.50;;;2.81;58.58
46111;BME280;31849;55.992;37.252;2023-02-13T13:52:09;98309.75;;;2.78;59.88
46111;BME280;31849;55.992;37.252;2023-02-13T13:57:14;98310.47;;;2.66;59.16
46111;BME280;31849;55.992;37.252;2023-02-13T14:02:34;98295.06;;;2.64;59.99
46111;BME280;31849;55.992;37.252;2023-02-13T14:07:40;98274.25;;;2.38;59.48
46111;BME280;31849;55.992;37.252;2023-02-13T14:12:49;98283.78;;;2.49;59.71
46111;BME280;31849;55.992;37.252;2023-02-13T14:17:53;98276.84;;;2.43;59.94
46111;BME280;31849;55.992;37.252;2023-02-13T14:23:04;98275.00;;;2.29;60.95
46111;BME280;31849;55.992;37.252;2023-02-13T14:28:21;98271.53;;;2.24;61.06
46111;BME280;31849;55.992;37.252;2023-02-13T14:33:27;98267.34;;;2.34;60.26
46111;BME280;31849;55.992;37.252;2023-02-13T14:38:33;98262.00;;;2.14;60.80
46111;BME280;31849;55.992;37.252;2023-02-13T14:43:50;98252.47;;;2.02;62.67
46111;BME280;31849;55.992;37.252;2023-02-13T14:48:58;98248.97;;;1.99;62.25
46111;BME280;31849;55.992;37.252;2023-02-13T14:54:16;98234.53;;;2.04;61.54
46111;BME280;31849;55.992;37.252;2023-02-13T14:59:25;98228.41;;;1.92;62.25
46111;BME280;31849;55.992;37.252;2023-02-13T15:04:37;98216.28;;;1.79;62.54
46111;BME280;31849;55.992;37.252;2023-02-13T15:09:47;98200.91;;;1.81;62.88
46111;BME280;31849;55.992;37.252;2023-02-13T15:14:53;98206.16;;;1.91;62.17
46111;BME280;31849;55.992;37.252;2023-02-13T15:19:58;98199.31;;;1.89;63.26
46111;BME280;31849;55.992;37.252;2023-02-13T15:25:06;98196.59;;;1.78;62.82
46111;BME280;31849;55.992;37.252;2023-02-13T15:30:19;98177.84;;;1.81;62.96
46111;BME280;31849;55.992;37.252;2023-02-13T15:35:24;98167.63;;;1.82;62.77
46111;BME280;31849;55.992;37.252;2023-02-13T15:40:30;98165.97;;;1.87;63.47
46111;BME280;31849;55.992;37.252;2023-02-13T15:45:42;98163.44;;;1.89;63.97
46111;BME280;31849;55.992;37.252;2023-02-13T15:50:46;98157.41;;;1.85;63.47
46111;BME280;31849;55.992;37.252;2023-02-13T15:56:01;98160.88;;;1.89;64.22
46111;BME280;31849;55.992;37.252;2023-02-13T16:01:07;98163.66;;;2.12;63.43
46111;BME280;31849;55.992;37.252;2023-02-13T16:06:13;98132.06;;;2.13;63.75
46111;BME280;31849;55.992;37.252;2023-02-13T16:11:27;98115.13;;;2.29;62.97
46111;BME280;31849;55.992;37.252;2023-02-13T16:16:40;98109.13;;;2.30;63.20
46111;BME280;31849;55.992;37.252;2023-02-13T16:21:47;98092.88;;;2.28;63.55
46111;BME280;31849;55.992;37.252;2023-02-13T16:26:51;98081.78;;;2.29;63.38
46111;BME280;31849;55.992;37.252;2023-02-13T16:32:17;98074.19;;;2.44;63.39
46111;BME280;31849;55.992;37.252;2023-02-13T16:37:26;98069.00;;;2.35;63.18
46111;BME280;31849;55.992;37.252;2023-02-13T16:42:30;98064.72;;;2.36;63.82
46111;BME280;31849;55.992;37.252;2023-02-13T16:47:35;98054.59;;;2.54;63.50
46111;BME280;31849;55.992;37.252;2023-02-13T16:52:38;98049.56;;;2.67;63.22
46111;BME280;31849;55.992;37.252;2023-02-13T16:57:41;98046.03;;;2.54;63.41
46111;BME280;31849;55.992;37.252;2023-02-13T17:02:48;98038.44;;;2.64;63.55
46111;BME280;31849;55.992;37.252;2023-02-13T17:07:53;98036.53;;;2.40;63.96
46111;BME280;31849;55.992;37.252;2023-02-13T17:12:59;98022.91;;;2.49;63.85
46111;BME280;31849;55.992;37.252;2023-02-13T17:18:04;98012.69;;;2.55;63.98
46111;BME280;31849;55.992;37.252;2023-02-13T17:23:12;98005.06;;;2.63;63.32
46111;BME280;31849;55.992;37.252;2023-02-13T17:28:18;97993.88;;;2.53;63.81
46111;BME280;31849;55.992;37.252;2023-02-13T17:33:25;97983.63;;;2.59;64.00
46111;BME280;31849;55.992;37.252;2023-02-13T17:38:28;97974.28;;;2.68;63.13
46111;BME280;31849;55.992;37.252;2023-02-13T17:43:32;97962.31;;;2.74;63.83
46111;BME280;31849;55.992;37.252;2023-02-13T17:48:37;97951.19;;;2.68;64.13
46111;BME280;31849;55.992;37.252;2023-02-13T17:53:40;97964.00;;;2.63;63.80
46111;BME280;31849;55.992;37.252;2023-02-13T17:58:44;97952.84;;;2.59;64.04
46111;BME280;31849;55.992;37.252;2023-02-13T18:03:54;97936.56;;;2.53;64.53
46111;BME280;31849;55.992;37.252;2023-02-13T18:08:57;97944.28;;;2.56;64.74
46111;BME280;31849;55.992;37.252;2023-02-13T18:14:01;97930.59;;;2.57;64.28
46111;BME280;31849;55.992;37.252;2023-02-13T18:19:05;97917.81;;;2.66;64.95
46111;BME280;31849;55.992;37.252;2023-02-13T18:24:09;97913.56;;;2.79;64.13
46111;BME280;31849;55.992;37.252;2023-02-13T18:29:12;97905.84;;;2.74;63.90
46111;BME280;31849;55.992;37.252;2023-02-13T18:34:17;97897.31;;;2.71;64.52
46111;BME280;31849;55.992;37.252;2023-02-13T18:39:21;97888.72;;;2.62;64.79
46111;BME280;31849;55.992;37.252;2023-02-13T18:44:24;97874.19;;;2.66;64.52
46111;BME280;31849;55.992;37.252;2023-02-13T18:49:30;97868.22;;;2.72;64.50
46111;BME280;31849;55.992;37.252;2023-02-13T18:54:35;97861.34;;;2.63;64.65
46111;BME280;31849;55.992;37.252;2023-02-13T18:59:38;97849.34;;;2.59;64.95
46111;BME280;31849;55.992;37.252;2023-02-13T19:04:43;97852.84;;;2.81;64.94
46111;BME280;31849;55.992;37.252;2023-02-13T19:09:46;97843.44;;;2.85;64.75
46111;BME280;31849;55.992;37.252;2023-02-13T19:14:50;97840.88;;;2.83;64.46
46111;BME280;31849;55.992;37.252;2023-02-13T19:19:55;97843.44;;;2.85;64.63
46111;BME280;31849;55.992;37.252;2023-02-13T19:24:58;97830.59;;;2.78;65.62
46111;BME280;31849;55.992;37.252;2023-02-13T19:30:03;97836.63;;;2.84;65.24
46111;BME280;31849;55.992;37.252;2023-02-13T19:35:11;97834.06;;;2.87;64.97
46111;BME280;31849;55.992;37.252;2023-02-13T19:40:15;97826.34;;;2.84;64.44
46111;BME280;31849;55.992;37.252;2023-02-13T19:45:19;97831.50;;;3.05;64.80
46111;BME280;31849;55.992;37.252;2023-02-13T19:50:24;97816.94;;;2.95;64.05
46111;BME280;31849;55.992;37.252;2023-02-13T19:55:27;97838.38;;;3.17;64.75
46111;BME280;31849;55.992;37.252;2023-02-13T20:00:30;97837.47;;;3.06;64.70
46111;BME280;31849;55.992;37.252;2023-02-13T20:05:38;97832.34;;;3.06;64.84
46111;BME280;31849;55.992;37.252;2023-02-13T20:10:43;97818.66;;;2.91;64.88
46111;BME280;31849;55.992;37.252;2023-02-13T20:15:46;97835.72;;;2.85;65.11
46111;BME280;31849;55.992;37.252;2023-02-13T20:20:52;97831.47;;;2.85;64.64
46111;BME280;31849;55.992;37.252;2023-02-13T20:25:55;97827.19;;;2.79;64.65
46111;BME280;31849;55.992;37.252;2023-02-13T20:30:59;97834.88;;;2.81;64.96
46111;BME280;31849;55.992;37.252;2023-02-13T20:36:09;97837.44;;;2.81;64.93
46111;BME280;31849;55.992;37.252;2023-02-13T20:41:14;97834.00;;;2.73;65.04
46111;BME280;31849;55.992;37.252;2023-02-13T20:46:18;97848.53;;;2.66;65.10
46111;BME280;31849;55.992;37.252;2023-02-13T20:51:23;97851.94;;;2.70;65.30
46111;BME280;31849;55.992;37.252;2023-02-13T20:56:27;97847.69;;;2.73;64.72
46111;BME280;31849;55.992;37.252;2023-02-13T21:01:32;97850.22;;;2.66;65.01
46111;BME280;31849;55.992;37.252;2023-02-13T21:06:37;97857.97;;;2.73;65.03
46111;BME280;31849;55.992;37.252;2023-02-13T21:11:41;97864.84;;;2.85;63.99
46111;BME280;31849;55.992;37.252;2023-02-13T21:16:44;97852.78;;;2.62;64.62
46111;BME280;31849;55.992;37.252;2023-02-13T21:21:49;97838.28;;;2.69;64.07
46111;BME280;31849;55.992;37.252;2023-02-13T21:26:53;97834.81;;;2.62;64.13
46111;BME280;31849;55.992;37.252;2023-02-13T21:31:56;97837.34;;;2.52;64.32
46111;BME280;31849;55.992;37.252;2023-02-13T21:37:01;97856.22;;;2.66;63.83
46111;BME280;31849;55.992;37.252;2023-02-13T21:42:04;97851.94;;;2.60;64.49
46111;BME280;31849;55.992;37.252;2023-02-13T21:47:08;97859.63;;;2.54;64.53
46111;BME280;31849;55.992;37.252;2023-02-13T21:52:12;97870.72;;;2.58;64.37
46111;BME280;31849;55.992;37.252;2023-02-13T21:57:17;97867.31;;;2.57;64.55
46111;BME280;31849;55.992;37.252;2023-02-13T22:02:21;97863.88;;;2.54;63.99
46111;BME280;31849;55.992;37.252;2023-02-13T22:07:26;97872.38;;;2.42;64.42
46111;BME280;31849;55.992;37.252;2023-02-13T22:12:29;97887.75;;;2.43;63.83
46111;BME280;31849;55.992;37.252;2023-02-13T22:17:33;97881.78;;;2.46;63.72
46111;BME280;31849;55.992;37.252;2023-02-13T22:22:39;97889.50;;;2.44;63.85
46111;BME280;31849;55.992;37.252;2023-02-13T22:27:44;97894.63;;;2.51;63.63
46111;BME280;31849;55.992;37.252;2023-02-13T22:32:47;97894.59;;;2.41;63.44
46111;BME280;31849;55.992;37.252;2023-02-13T22:37:52;97879.25;;;2.52;63.60
46111;BME280;31849;55.992;37.252;2023-02-13T22:42:55;97888.66;;;2.50;63.22
46111;BME280;31849;55.992;37.252;2023-02-13T22:47:59;97890.38;;;2.46;62.94
46111;BME280;31849;55.992;37.252;2023-02-13T22:53:04;97900.66;;;2.50;63.24
46111;BME280;31849;55.992;37.252;2023-02-13T22:58:07;97900.66;;;2.53;63.21
46111;BME280;31849;55.992;37.252;2023-02-13T23:03:10;97897.13;;;2.31;63.05
46111;BME280;31849;55.992;37.252;2023-02-13T23:08:15;97907.44;;;2.43;63.52
46111;BME280;31849;55.992;37.252;2023-02-13T23:13:18;97907.44;;;2.46;63.09
46111;BME280;31849;55.992;37.252;2023-02-13T23:18:22;97921.09;;;2.39;63.11
46111;BME280;31849;55.992;37.252;2023-02-13T23:23:26;97919.41;;;2.42;62.72
46111;BME280;31849;55.992;37.252;2023-02-13T23:28:30;97908.28;;;2.43;63.04
46111;BME280;31849;55.992;37.252;2023-02-13T23:33:33;97915.16;;;2.46;62.84
46111;BME280;31849;55.992;37.252;2023-02-13T23:38:38;97909.19;;;2.50;62.82
46111;BME280;31849;55.992;37.252;2023-02-13T23:43:41;97909.16;;;2.45;62.82
46111;BME280;31849;55.992;37.252;2023-02-13T23:48:45;97903.19;;;2.45;62.63
46111;BME280;31849;55.992;37.252;2023-02-13T23:53:50;97913.47;;;2.50;62.48
46111;BME280;31849;55.992;37.252;2023-02-13T23:58:57;97910.84;;;2.43;62.86
